sensor_id;sensor_type;location;lat;lon;timestamp;P1;durP1;ratioP1;P2;durP2;ratioP2
73107;SDS011;61559;50.476;15.588;2023-02-23T00:00:42;11.40;;;5.10;;
73107;SDS011;61559;50.476;15.588;2023-02-23T00:03:16;12.10;;;5.70;;
73107;SDS011;61559;50.476;15.588;2023-02-23T00:05:47;10.80;;;5.50;;
73107;SDS011;61559;50.476;15.588;2023-02-23T00:08:18;12.90;;;6.20;;
73107;SDS011;61559;50.476;15.588;2023-02-23T00:10:50;17.30;;;8.10;;
73107;SDS011;61559;50.476;15.588;2023-02-23T00:13:25;15.60;;;7.30;;
73107;SDS011;61559;50.476;15.588;2023-02-23T00:15:57;12.10;;;5.80;;
73107;SDS011;61559;50.476;15.588;2023-02-23T00:18:32;14.90;;;6.40;;
73107;SDS011;61559;50.476;15.588;2023-02-23T00:21:13;12.40;;;5.90;;
73107;SDS011;61559;50.476;15.588;2023-02-23T00:23:48;11.10;;;5.50;;
73107;SDS011;61559;50.476;15.588;2023-02-23T00:26:21;9.90;;;5.60;;
73107;SDS011;61559;50.476;15.588;2023-02-23T00:28:54;11.70;;;5.60;;
73107;SDS011;61559;50.476;15.588;2023-02-23T00:31:26;17.80;;;6.40;;
73107;SDS011;61559;50.476;15.588;2023-02-23T00:33:58;15.00;;;6.40;;
73107;SDS011;61559;50.476;15.588;2023-02-23T00:36:31;14.60;;;5.50;;
73107;SDS011;61559;50.476;15.588;2023-02-23T00:39:04;9.60;;;5.30;;
73107;SDS011;61559;50.476;15.588;2023-02-23T00:41:46;9.90;;;5.60;;
73107;SDS011;61559;50.476;15.588;2023-02-23T00:44:22;11.70;;;5.30;;
73107;SDS011;61559;50.476;15.588;2023-02-23T00:46:54;9.90;;;5.80;;
73107;SDS011;61559;50.476;15.588;2023-02-23T00:49:25;9.70;;;5.10;;
73107;SDS011;61559;50.476;15.588;2023-02-23T00:51:57;10.10;;;5.50;;
73107;SDS011;61559;50.476;15.588;2023-02-23T00:54:28;14.70;;;5.20;;
73107;SDS011;61559;50.476;15.588;2023-02-23T00:56:59;14.60;;;5.90;;
73107;SDS011;61559;50.476;15.588;2023-02-23T00:59:30;12.20;;;5.20;;
73107;SDS011;61559;50.476;15.588;2023-02-23T01:02:01;9.40;;;4.80;;
73107;SDS011;61559;50.476;15.588;2023-02-23T01:04:32;9.90;;;4.90;;
73107;SDS011;61559;50.476;15.588;2023-02-23T01:07:03;12.40;;;5.90;;
73107;SDS011;61559;50.476;15.588;2023-02-23T01:09:35;13.90;;;5.90;;
73107;SDS011;61559;50.476;15.588;2023-02-23T01:14:36;11.60;;;4.90;;
73107;SDS011;61559;50.476;15.588;2023-02-23T01:17:09;11.80;;;5.40;;
73107;SDS011;61559;50.476;15.588;2023-02-23T01:22:10;9.80;;;5.20;;
73107;SDS011;61559;50.476;15.588;2023-02-23T01:24:41;9.10;;;4.50;;
73107;SDS011;61559;50.476;15.588;2023-02-23T01:27:12;8.90;;;5.30;;
73107;SDS011;61559;50.476;15.588;2023-02-23T01:29:43;9.80;;;5.10;;
73107;SDS011;61559;50.476;15.588;2023-02-23T01:32:14;10.20;;;5.10;;
73107;SDS011;61559;50.476;15.588;2023-02-23T01:34:46;10.60;;;5.10;;
73107;SDS011;61559;50.476;15.588;2023-02-23T01:37:17;13.60;;;5.30;;
73107;SDS011;61559;50.476;15.588;2023-02-23T01:39:48;9.20;;;5.20;;
73107;SDS011;61559;50.476;15.588;2023-02-23T01:42:20;10.10;;;5.50;;
73107;SDS011;61559;50.476;15.588;2023-02-23T01:47:57;10.10;;;5.20;;
73107;SDS011;61559;50.476;15.588;2023-02-23T01:50:31;12.20;;;5.30;;
73107;SDS011;61559;50.476;15.588;2023-02-23T01:53:08;9.00;;;4.60;;
73107;SDS011;61559;50.476;15.588;2023-02-23T01:55:39;12.60;;;5.20;;
73107;SDS011;61559;50.476;15.588;2023-02-23T01:58:13;11.80;;;6.30;;
73107;SDS011;61559;50.476;15.588;2023-02-23T02:00:48;13.70;;;6.00;;
73107;SDS011;61559;50.476;15.588;2023-02-23T02:03:25;11.70;;;5.70;;
73107;SDS011;61559;50.476;15.588;2023-02-23T02:05:59;12.60;;;5.90;;
73107;SDS011;61559;50.476;15.588;2023-02-23T02:08:32;13.00;;;6.00;;
73107;SDS011;61559;50.476;15.588;2023-02-23T02:11:11;9.70;;;4.80;;
73107;SDS011;61559;50.476;15.588;2023-02-23T02:13:58;12.10;;;5.40;;
73107;SDS011;61559;50.476;15.588;2023-02-23T02:16:35;10.60;;;5.50;;
73107;SDS011;61559;50.476;15.588;2023-02-23T02:19:39;10.20;;;4.90;;
73107;SDS011;61559;50.476;15.588;2023-02-23T02:22:45;11.90;;;5.00;;
73107;SDS011;61559;50.476;15.588;2023-02-23T02:25:36;13.10;;;5.60;;
73107;SDS011;61559;50.476;15.588;2023-02-23T02:28:26;10.60;;;5.40;;
73107;SDS011;61559;50.476;15.588;2023-02-23T02:31:15;10.40;;;5.50;;
73107;SDS011;61559;50.476;15.588;2023-02-23T02:37:22;9.70;;;5.10;;
73107;SDS011;61559;50.476;15.588;2023-02-23T02:40:08;11.30;;;5.60;;
73107;SDS011;61559;50.476;15.588;2023-02-23T02:42:53;12.10;;;5.90;;
73107;SDS011;61559;50.476;15.588;2023-02-23T02:45:38;10.70;;;5.60;;
73107;SDS011;61559;50.476;15.588;2023-02-23T02:48:19;11.40;;;5.90;;
73107;SDS011;61559;50.476;15.588;2023-02-23T02:50:59;9.80;;;5.30;;
73107;SDS011;61559;50.476;15.588;2023-02-23T02:53:40;12.70;;;5.30;;
73107;SDS011;61559;50.476;15.588;2023-02-23T02:56:19;11.00;;;5.40;;
73107;SDS011;61559;50.476;15.588;2023-02-23T02:58:53;11.10;;;5.80;;
73107;SDS011;61559;50.476;15.588;2023-02-23T03:01:27;11.60;;;5.10;;
73107;SDS011;61559;50.476;15.588;2023-02-23T03:04:19;9.90;;;5.20;;
73107;SDS011;61559;50.476;15.588;2023-02-23T03:07:10;8.90;;;4.80;;
73107;SDS011;61559;50.476;15.588;2023-02-23T03:10:10;9.40;;;4.70;;
73107;SDS011;61559;50.476;15.588;2023-02-23T03:13:13;10.70;;;5.20;;
73107;SDS011;61559;50.476;15.588;2023-02-23T03:16:14;10.30;;;5.30;;
73107;SDS011;61559;50.476;15.588;2023-02-23T03:19:13;11.00;;;5.00;;
73107;SDS011;61559;50.476;15.588;2023-02-23T03:22:09;9.50;;;5.20;;
73107;SDS011;61559;50.476;15.588;2023-02-23T03:25:07;12.30;;;5.60;;
73107;SDS011;61559;50.476;15.588;2023-02-23T03:28:01;11.20;;;4.80;;
73107;SDS011;61559;50.476;15.588;2023-02-23T03:30:59;11.00;;;5.00;;
73107;SDS011;61559;50.476;15.588;2023-02-23T03:33:56;13.10;;;5.60;;
73107;SDS011;61559;50.476;15.588;2023-02-23T03:36:56;11.70;;;4.70;;
73107;SDS011;61559;50.476;15.588;2023-02-23T03:39:51;8.20;;;4.90;;
73107;SDS011;61559;50.476;15.588;2023-02-23T03:42:45;9.30;;;5.30;;
73107;SDS011;61559;50.476;15.588;2023-02-23T03:45:35;9.70;;;5.00;;
73107;SDS011;61559;50.476;15.588;2023-02-23T03:48:26;11.20;;;5.20;;
73107;SDS011;61559;50.476;15.588;2023-02-23T03:51:15;9.70;;;4.60;;
73107;SDS011;61559;50.476;15.588;2023-02-23T03:54:07;10.40;;;5.10;;
73107;SDS011;61559;50.476;15.588;2023-02-23T03:57:02;12.30;;;5.30;;
73107;SDS011;61559;50.476;15.588;2023-02-23T03:59:56;7.20;;;4.20;;
73107;SDS011;61559;50.476;15.588;2023-02-23T04:02:48;9.20;;;5.20;;
73107;SDS011;61559;50.476;15.588;2023-02-23T04:05:40;10.00;;;4.90;;
73107;SDS011;61559;50.476;15.588;2023-02-23T04:08:31;11.80;;;4.60;;
73107;SDS011;61559;50.476;15.588;2023-02-23T04:11:23;7.90;;;4.80;;
73107;SDS011;61559;50.476;15.588;2023-02-23T04:14:19;8.80;;;4.60;;
73107;SDS011;61559;50.476;15.588;2023-02-23T04:19:26;9.40;;;5.00;;
73107;SDS011;61559;50.476;15.588;2023-02-23T04:21:57;9.20;;;4.70;;
73107;SDS011;61559;50.476;15.588;2023-02-23T04:24:28;8.70;;;4.80;;
73107;SDS011;61559;50.476;15.588;2023-02-23T04:26:59;11.20;;;4.90;;
73107;SDS011;61559;50.476;15.588;2023-02-23T04:29:31;7.80;;;4.70;;
73107;SDS011;61559;50.476;15.588;2023-02-23T04:32:02;8.10;;;4.60;;
73107;SDS011;61559;50.476;15.588;2023-02-23T04:34:33;9.40;;;5.20;;
73107;SDS011;61559;50.476;15.588;2023-02-23T04:37:04;9.00;;;5.20;;
73107;SDS011;61559;50.476;15.588;2023-02-23T04:42:05;11.10;;;4.60;;
73107;SDS011;61559;50.476;15.588;2023-02-23T04:44:37;10.40;;;5.00;;
73107;SDS011;61559;50.476;15.588;2023-02-23T04:49:38;9.10;;;4.70;;
73107;SDS011;61559;50.476;15.588;2023-02-23T04:52:09;8.80;;;5.50;;
73107;SDS011;61559;50.476;15.588;2023-02-23T04:54:39;9.10;;;4.70;;
73107;SDS011;61559;50.476;15.588;2023-02-23T04:57:11;13.60;;;6.40;;
73107;SDS011;61559;50.476;15.588;2023-02-23T04:59:42;12.70;;;6.70;;
73107;SDS011;61559;50.476;15.588;2023-02-23T05:02:13;11.10;;;6.10;;
73107;SDS011;61559;50.476;15.588;2023-02-23T05:04:44;11.70;;;5.40;;
73107;SDS011;61559;50.476;15.588;2023-02-23T05:07:15;12.50;;;5.80;;
73107;SDS011;61559;50.476;15.588;2023-02-23T05:09:46;10.90;;;5.10;;
73107;SDS011;61559;50.476;15.588;2023-02-23T05:12:17;14.20;;;6.00;;
73107;SDS011;61559;50.476;15.588;2023-02-23T05:14:48;13.70;;;5.70;;
73107;SDS011;61559;50.476;15.588;2023-02-23T05:17:19;12.40;;;6.20;;
73107;SDS011;61559;50.476;15.588;2023-02-23T05:19:51;10.60;;;6.00;;
73107;SDS011;61559;50.476;15.588;2023-02-23T05:22:23;8.10;;;5.30;;
73107;SDS011;61559;50.476;15.588;2023-02-23T05:24:54;9.70;;;5.10;;
73107;SDS011;61559;50.476;15.588;2023-02-23T05:27:25;9.80;;;5.40;;
73107;SDS011;61559;50.476;15.588;2023-02-23T05:29:56;9.70;;;5.20;;
73107;SDS011;61559;50.476;15.588;2023-02-23T05:32:27;12.40;;;5.50;;
73107;SDS011;61559;50.476;15.588;2023-02-23T05:34:59;12.40;;;5.60;;
73107;SDS011;61559;50.476;15.588;2023-02-23T05:37:30;8.90;;;4.70;;
73107;SDS011;61559;50.476;15.588;2023-02-23T05:42:31;8.60;;;5.20;;
73107;SDS011;61559;50.476;15.588;2023-02-23T05:45:03;10.50;;;5.20;;
73107;SDS011;61559;50.476;15.588;2023-02-23T05:47:36;9.00;;;5.20;;
73107;SDS011;61559;50.476;15.588;2023-02-23T05:50:08;9.80;;;5.40;;
73107;SDS011;61559;50.476;15.588;2023-02-23T05:52:40;11.00;;;5.50;;
73107;SDS011;61559;50.476;15.588;2023-02-23T05:55:11;11.50;;;6.00;;
73107;SDS011;61559;50.476;15.588;2023-02-23T05:57:42;10.90;;;5.80;;
73107;SDS011;61559;50.476;15.588;2023-02-23T06:02:43;10.70;;;5.70;;
73107;SDS011;61559;50.476;15.588;2023-02-23T06:05:14;9.40;;;5.30;;
73107;SDS011;61559;50.476;15.588;2023-02-23T06:10:15;10.70;;;5.00;;
73107;SDS011;61559;50.476;15.588;2023-02-23T06:12:47;10.40;;;5.20;;
73107;SDS011;61559;50.476;15.588;2023-02-23T06:15:17;13.10;;;5.20;;
73107;SDS011;61559;50.476;15.588;2023-02-23T06:20:18;11.50;;;5.40;;
73107;SDS011;61559;50.476;15.588;2023-02-23T06:22:50;9.10;;;5.60;;
73107;SDS011;61559;50.476;15.588;2023-02-23T06:25:21;11.90;;;5.60;;
73107;SDS011;61559;50.476;15.588;2023-02-23T06:27:52;9.10;;;5.10;;
73107;SDS011;61559;50.476;15.588;2023-02-23T06:30:23;11.20;;;5.30;;
73107;SDS011;61559;50.476;15.588;2023-02-23T06:35:24;11.60;;;5.30;;
73107;SDS011;61559;50.476;15.588;2023-02-23T06:37:55;12.40;;;5.40;;
73107;SDS011;61559;50.476;15.588;2023-02-23T06:40:26;12.60;;;5.30;;
73107;SDS011;61559;50.476;15.588;2023-02-23T06:42:57;24.80;;;11.00;;
73107;SDS011;61559;50.476;15.588;2023-02-23T06:45:31;17.80;;;8.80;;
73107;SDS011;61559;50.476;15.588;2023-02-23T06:48:02;15.80;;;8.40;;
73107;SDS011;61559;50.476;15.588;2023-02-23T06:50:34;19.10;;;9.10;;
73107;SDS011;61559;50.476;15.588;2023-02-23T06:53:05;17.70;;;8.60;;
73107;SDS011;61559;50.476;15.588;2023-02-23T06:58:05;17.30;;;7.80;;
73107;SDS011;61559;50.476;15.588;2023-02-23T07:00:36;15.40;;;7.50;;
73107;SDS011;61559;50.476;15.588;2023-02-23T07:03:10;16.30;;;9.10;;
73107;SDS011;61559;50.476;15.588;2023-02-23T07:05:41;14.10;;;7.30;;
73107;SDS011;61559;50.476;15.588;2023-02-23T07:08:12;20.10;;;9.90;;
73107;SDS011;61559;50.476;15.588;2023-02-23T07:10:43;15.60;;;8.60;;
73107;SDS011;61559;50.476;15.588;2023-02-23T07:13:15;13.40;;;7.80;;
73107;SDS011;61559;50.476;15.588;2023-02-23T07:15:47;13.10;;;7.10;;
73107;SDS011;61559;50.476;15.588;2023-02-23T07:18:18;20.60;;;10.60;;
73107;SDS011;61559;50.476;15.588;2023-02-23T07:20:49;18.10;;;10.50;;
73107;SDS011;61559;50.476;15.588;2023-02-23T07:23:20;18.60;;;10.60;;
73107;SDS011;61559;50.476;15.588;2023-02-23T07:28:22;18.00;;;9.60;;
73107;SDS011;61559;50.476;15.588;2023-02-23T07:30:55;15.60;;;8.50;;
73107;SDS011;61559;50.476;15.588;2023-02-23T07:33:27;15.00;;;9.30;;
73107;SDS011;61559;50.476;15.588;2023-02-23T07:35:59;13.80;;;8.10;;
73107;SDS011;61559;50.476;15.588;2023-02-23T07:38:31;15.10;;;6.60;;
73107;SDS011;61559;50.476;15.588;2023-02-23T07:41:02;12.00;;;6.10;;
73107;SDS011;61559;50.476;15.588;2023-02-23T07:46:03;10.50;;;5.40;;
73107;SDS011;61559;50.476;15.588;2023-02-23T07:48:34;13.70;;;6.10;;
73107;SDS011;61559;50.476;15.588;2023-02-23T07:51:09;13.60;;;6.50;;
73107;SDS011;61559;50.476;15.588;2023-02-23T07:53:41;14.60;;;6.30;;
73107;SDS011;61559;50.476;15.588;2023-02-23T07:56:12;14.60;;;6.90;;
73107;SDS011;61559;50.476;15.588;2023-02-23T07:58:43;13.10;;;6.30;;
73107;SDS011;61559;50.476;15.588;2023-02-23T08:01:14;11.70;;;6.10;;
73107;SDS011;61559;50.476;15.588;2023-02-23T08:03:46;11.30;;;5.70;;
73107;SDS011;61559;50.476;15.588;2023-02-23T08:06:18;14.90;;;5.90;;
73107;SDS011;61559;50.476;15.588;2023-02-23T08:08:49;12.20;;;5.90;;
73107;SDS011;61559;50.476;15.588;2023-02-23T08:11:20;13.60;;;6.30;;
73107;SDS011;61559;50.476;15.588;2023-02-23T08:13:52;12.20;;;5.80;;
73107;SDS011;61559;50.476;15.588;2023-02-23T08:16:27;10.70;;;5.30;;
73107;SDS011;61559;50.476;15.588;2023-02-23T08:19:00;13.30;;;5.70;;
73107;SDS011;61559;50.476;15.588;2023-02-23T08:21:31;11.00;;;5.40;;
73107;SDS011;61559;50.476;15.588;2023-02-23T08:26:32;9.90;;;5.20;;
73107;SDS011;61559;50.476;15.588;2023-02-23T08:29:05;14.10;;;5.60;;
73107;SDS011;61559;50.476;15.588;2023-02-23T08:31:36;10.70;;;4.80;;
73107;SDS011;61559;50.476;15.588;2023-02-23T08:34:08;9.50;;;4.80;;
73107;SDS011;61559;50.476;15.588;2023-02-23T08:36:39;10.50;;;5.20;;
73107;SDS011;61559;50.476;15.588;2023-02-23T08:39:13;11.40;;;5.30;;
73107;SDS011;61559;50.476;15.588;2023-02-23T08:41:45;12.60;;;5.70;;
73107;SDS011;61559;50.476;15.588;2023-02-23T08:44:16;11.20;;;5.40;;
73107;SDS011;61559;50.476;15.588;2023-02-23T08:46:47;11.60;;;5.00;;
73107;SDS011;61559;50.476;15.588;2023-02-23T08:49:18;12.20;;;6.10;;
73107;SDS011;61559;50.476;15.588;2023-02-23T08:51:49;10.40;;;5.30;;
73107;SDS011;61559;50.476;15.588;2023-02-23T08:56:50;11.90;;;5.90;;
73107;SDS011;61559;50.476;15.588;2023-02-23T08:59:26;11.40;;;5.60;;
73107;SDS011;61559;50.476;15.588;2023-02-23T09:01:57;16.70;;;7.10;;
73107;SDS011;61559;50.476;15.588;2023-02-23T09:04:28;15.80;;;6.50;;
73107;SDS011;61559;50.476;15.588;2023-02-23T09:07:02;14.20;;;6.80;;
73107;SDS011;61559;50.476;15.588;2023-02-23T09:09:34;17.00;;;6.20;;
73107;SDS011;61559;50.476;15.588;2023-02-23T09:12:06;14.00;;;6.90;;
73107;SDS011;61559;50.476;15.588;2023-02-23T09:14:37;15.40;;;6.70;;
73107;SDS011;61559;50.476;15.588;2023-02-23T09:17:08;14.10;;;7.00;;
73107;SDS011;61559;50.476;15.588;2023-02-23T09:19:39;15.70;;;6.60;;
73107;SDS011;61559;50.476;15.588;2023-02-23T09:22:11;15.30;;;6.40;;
73107;SDS011;61559;50.476;15.588;2023-02-23T09:24:42;10.90;;;5.00;;
73107;SDS011;61559;50.476;15.588;2023-02-23T09:27:13;12.70;;;5.90;;
73107;SDS011;61559;50.476;15.588;2023-02-23T09:29:45;13.40;;;6.60;;
73107;SDS011;61559;50.476;15.588;2023-02-23T09:32:16;17.50;;;6.70;;
73107;SDS011;61559;50.476;15.588;2023-02-23T09:34:48;14.90;;;6.70;;
73107;SDS011;61559;50.476;15.588;2023-02-23T09:37:19;12.30;;;5.90;;
73107;SDS011;61559;50.476;15.588;2023-02-23T09:39:52;18.80;;;7.10;;
73107;SDS011;61559;50.476;15.588;2023-02-23T09:42:26;17.00;;;7.10;;
73107;SDS011;61559;50.476;15.588;2023-02-23T09:45:19;15.90;;;8.20;;
73107;SDS011;61559;50.476;15.588;2023-02-23T09:48:08;10.80;;;5.90;;
73107;SDS011;61559;50.476;15.588;2023-02-23T09:50:45;13.60;;;6.00;;
73107;SDS011;61559;50.476;15.588;2023-02-23T09:53:23;13.30;;;6.70;;
73107;SDS011;61559;50.476;15.588;2023-02-23T09:56:02;13.00;;;7.50;;
73107;SDS011;61559;50.476;15.588;2023-02-23T09:58:39;10.10;;;5.70;;
73107;SDS011;61559;50.476;15.588;2023-02-23T10:04:16;9.10;;;4.60;;
73107;SDS011;61559;50.476;15.588;2023-02-23T10:06:52;9.90;;;5.10;;
73107;SDS011;61559;50.476;15.588;2023-02-23T10:09:30;10.10;;;5.00;;
73107;SDS011;61559;50.476;15.588;2023-02-23T10:12:17;10.00;;;5.10;;
73107;SDS011;61559;50.476;15.588;2023-02-23T10:14:59;9.50;;;5.10;;
73107;SDS011;61559;50.476;15.588;2023-02-23T10:17:39;10.60;;;4.70;;
73107;SDS011;61559;50.476;15.588;2023-02-23T10:20:20;13.80;;;8.10;;
73107;SDS011;61559;50.476;15.588;2023-02-23T10:23:01;12.40;;;6.10;;
73107;SDS011;61559;50.476;15.588;2023-02-23T10:25:35;13.90;;;6.30;;
73107;SDS011;61559;50.476;15.588;2023-02-23T10:28:10;11.50;;;5.80;;
73107;SDS011;61559;50.476;15.588;2023-02-23T10:30:44;7.50;;;4.90;;
73107;SDS011;61559;50.476;15.588;2023-02-23T10:33:17;8.00;;;4.50;;
73107;SDS011;61559;50.476;15.588;2023-02-23T10:35:54;7.70;;;4.70;;
73107;SDS011;61559;50.476;15.588;2023-02-23T10:38:40;8.20;;;4.60;;
73107;SDS011;61559;50.476;15.588;2023-02-23T10:41:11;11.10;;;5.50;;
73107;SDS011;61559;50.476;15.588;2023-02-23T10:43:42;9.60;;;5.00;;
73107;SDS011;61559;50.476;15.588;2023-02-23T10:46:16;9.10;;;4.60;;
73107;SDS011;61559;50.476;15.588;2023-02-23T10:48:50;9.50;;;5.40;;
73107;SDS011;61559;50.476;15.588;2023-02-23T10:51:25;10.80;;;4.80;;
73107;SDS011;61559;50.476;15.588;2023-02-23T10:54:01;9.90;;;5.00;;
73107;SDS011;61559;50.476;15.588;2023-02-23T10:57:12;10.10;;;5.80;;
73107;SDS011;61559;50.476;15.588;2023-02-23T11:00:03;12.50;;;6.20;;
73107;SDS011;61559;50.476;15.588;2023-02-23T11:02:55;13.40;;;8.20;;
73107;SDS011;61559;50.476;15.588;2023-02-23T11:05:31;10.30;;;6.30;;
73107;SDS011;61559;50.476;15.588;2023-02-23T11:08:20;10.10;;;5.40;;
73107;SDS011;61559;50.476;15.588;2023-02-23T11:13:49;13.70;;;8.40;;
73107;SDS011;61559;50.476;15.588;2023-02-23T11:16:22;14.30;;;9.10;;
73107;SDS011;61559;50.476;15.588;2023-02-23T11:18:55;12.30;;;6.30;;
73107;SDS011;61559;50.476;15.588;2023-02-23T11:21:28;13.80;;;7.80;;
73107;SDS011;61559;50.476;15.588;2023-02-23T11:24:03;13.60;;;6.50;;
73107;SDS011;61559;50.476;15.588;2023-02-23T11:26:45;12.10;;;6.80;;
73107;SDS011;61559;50.476;15.588;2023-02-23T11:29:20;14.30;;;6.60;;
73107;SDS011;61559;50.476;15.588;2023-02-23T11:31:55;12.20;;;5.80;;
73107;SDS011;61559;50.476;15.588;2023-02-23T11:34:29;8.80;;;5.10;;
73107;SDS011;61559;50.476;15.588;2023-02-23T11:37:03;9.20;;;5.50;;
73107;SDS011;61559;50.476;15.588;2023-02-23T11:39:36;11.10;;;5.00;;
73107;SDS011;61559;50.476;15.588;2023-02-23T11:42:21;9.10;;;5.70;;
73107;SDS011;61559;50.476;15.588;2023-02-23T11:45:02;11.70;;;6.50;;
73107;SDS011;61559;50.476;15.588;2023-02-23T11:47:37;9.50;;;5.50;;
73107;SDS011;61559;50.476;15.588;2023-02-23T11:50:20;10.00;;;5.10;;
73107;SDS011;61559;50.476;15.588;2023-02-23T11:52:59;10.30;;;5.70;;
73107;SDS011;61559;50.476;15.588;2023-02-23T11:55:33;9.90;;;4.90;;
73107;SDS011;61559;50.476;15.588;2023-02-23T11:58:10;9.40;;;5.60;;
73107;SDS011;61559;50.476;15.588;2023-02-23T12:00:57;9.80;;;6.00;;
73107;SDS011;61559;50.476;15.588;2023-02-23T12:03:31;10.50;;;4.90;;
73107;SDS011;61559;50.476;15.588;2023-02-23T12:06:04;10.60;;;5.20;;
73107;SDS011;61559;50.476;15.588;2023-02-23T12:08:38;7.70;;;5.00;;
73107;SDS011;61559;50.476;15.588;2023-02-23T12:11:12;11.60;;;5.30;;
73107;SDS011;61559;50.476;15.588;2023-02-23T12:13:48;9.70;;;5.10;;
73107;SDS011;61559;50.476;15.588;2023-02-23T12:16:23;10.60;;;5.80;;
73107;SDS011;61559;50.476;15.588;2023-02-23T12:18:58;11.70;;;5.50;;
73107;SDS011;61559;50.476;15.588;2023-02-23T12:21:33;10.20;;;5.60;;
73107;SDS011;61559;50.476;15.588;2023-02-23T12:24:12;11.60;;;6.30;;
73107;SDS011;61559;50.476;15.588;2023-02-23T12:26:48;11.90;;;6.70;;
73107;SDS011;61559;50.476;15.588;2023-02-23T12:29:26;11.70;;;5.30;;
73107;SDS011;61559;50.476;15.588;2023-02-23T12:32:05;10.50;;;5.10;;
73107;SDS011;61559;50.476;15.588;2023-02-23T12:34:43;11.50;;;6.50;;
73107;SDS011;61559;50.476;15.588;2023-02-23T12:37:24;13.30;;;6.00;;
73107;SDS011;61559;50.476;15.588;2023-02-23T12:40:14;10.70;;;5.60;;
73107;SDS011;61559;50.476;15.588;2023-02-23T12:42:50;14.50;;;7.10;;
73107;SDS011;61559;50.476;15.588;2023-02-23T12:45:30;11.80;;;5.50;;
73107;SDS011;61559;50.476;15.588;2023-02-23T12:48:09;15.50;;;6.10;;
73107;SDS011;61559;50.476;15.588;2023-02-23T12:50:47;8.90;;;5.50;;
73107;SDS011;61559;50.476;15.588;2023-02-23T12:53:22;9.60;;;5.60;;
73107;SDS011;61559;50.476;15.588;2023-02-23T12:56:03;10.60;;;5.20;;
73107;SDS011;61559;50.476;15.588;2023-02-23T12:58:47;10.50;;;5.40;;
73107;SDS011;61559;50.476;15.588;2023-02-23T13:01:28;15.90;;;6.90;;
73107;SDS011;61559;50.476;15.588;2023-02-23T13:04:17;10.70;;;5.30;;
73107;SDS011;61559;50.476;15.588;2023-02-23T13:07:03;8.70;;;4.60;;
73107;SDS011;61559;50.476;15.588;2023-02-23T13:09:43;14.00;;;6.00;;
73107;SDS011;61559;50.476;15.588;2023-02-23T13:12:27;11.10;;;5.30;;
73107;SDS011;61559;50.476;15.588;2023-02-23T13:15:14;12.80;;;5.70;;
73107;SDS011;61559;50.476;15.588;2023-02-23T13:17:55;19.80;;;7.60;;
73107;SDS011;61559;50.476;15.588;2023-02-23T13:20:32;15.20;;;6.90;;
73107;SDS011;61559;50.476;15.588;2023-02-23T13:23:09;12.10;;;6.20;;
73107;SDS011;61559;50.476;15.588;2023-02-23T13:25:47;25.40;;;8.70;;
73107;SDS011;61559;50.476;15.588;2023-02-23T13:28:26;20.70;;;8.20;;
73107;SDS011;61559;50.476;15.588;2023-02-23T13:31:05;23.20;;;9.20;;
73107;SDS011;61559;50.476;15.588;2023-02-23T13:36:19;11.00;;;5.60;;
73107;SDS011;61559;50.476;15.588;2023-02-23T13:39:00;9.20;;;5.40;;
73107;SDS011;61559;50.476;15.588;2023-02-23T13:41:48;9.80;;;5.90;;
73107;SDS011;61559;50.476;15.588;2023-02-23T13:44:26;13.60;;;7.00;;
73107;SDS011;61559;50.476;15.588;2023-02-23T13:47:04;17.90;;;7.30;;
73107;SDS011;61559;50.476;15.588;2023-02-23T13:49:44;14.10;;;7.30;;
73107;SDS011;61559;50.476;15.588;2023-02-23T13:52:26;12.20;;;6.70;;
73107;SDS011;61559;50.476;15.588;2023-02-23T13:55:01;10.70;;;7.00;;
73107;SDS011;61559;50.476;15.588;2023-02-23T13:57:32;13.70;;;6.90;;
73107;SDS011;61559;50.476;15.588;2023-02-23T14:02:48;12.50;;;7.00;;
73107;SDS011;61559;50.476;15.588;2023-02-23T14:05:23;21.50;;;10.30;;
73107;SDS011;61559;50.476;15.588;2023-02-23T14:07:57;14.50;;;8.00;;
73107;SDS011;61559;50.476;15.588;2023-02-23T14:10:36;17.90;;;8.90;;
73107;SDS011;61559;50.476;15.588;2023-02-23T14:18:51;41.50;;;21.30;;
73107;SDS011;61559;50.476;15.588;2023-02-23T14:21:33;15.60;;;9.40;;
73107;SDS011;61559;50.476;15.588;2023-02-23T14:24:20;21.40;;;10.10;;
73107;SDS011;61559;50.476;15.588;2023-02-23T14:27:14;16.10;;;8.90;;
73107;SDS011;61559;50.476;15.588;2023-02-23T14:30:20;25.80;;;13.90;;
73107;SDS011;61559;50.476;15.588;2023-02-23T14:32:54;20.00;;;11.90;;
73107;SDS011;61559;50.476;15.588;2023-02-23T14:35:48;18.00;;;10.40;;
73107;SDS011;61559;50.476;15.588;2023-02-23T14:38:25;26.00;;;15.10;;
73107;SDS011;61559;50.476;15.588;2023-02-23T14:41:14;24.10;;;14.30;;
73107;SDS011;61559;50.476;15.588;2023-02-23T14:43:51;52.00;;;24.60;;
73107;SDS011;61559;50.476;15.588;2023-02-23T14:46:27;22.00;;;10.80;;
73107;SDS011;61559;50.476;15.588;2023-02-23T14:48:59;20.80;;;9.70;;
73107;SDS011;61559;50.476;15.588;2023-02-23T14:51:38;16.90;;;9.70;;
73107;SDS011;61559;50.476;15.588;2023-02-23T14:54:18;19.20;;;10.40;;
73107;SDS011;61559;50.476;15.588;2023-02-23T14:56:54;30.30;;;14.00;;
73107;SDS011;61559;50.476;15.588;2023-02-23T14:59:27;21.50;;;11.40;;
73107;SDS011;61559;50.476;15.588;2023-02-23T15:02:07;20.70;;;11.80;;
73107;SDS011;61559;50.476;15.588;2023-02-23T15:04:44;29.80;;;12.40;;
73107;SDS011;61559;50.476;15.588;2023-02-23T15:07:17;20.00;;;12.20;;
73107;SDS011;61559;50.476;15.588;2023-02-23T15:09:55;23.40;;;12.00;;
73107;SDS011;61559;50.476;15.588;2023-02-23T15:12:29;21.70;;;13.10;;
73107;SDS011;61559;50.476;15.588;2023-02-23T15:15:06;23.00;;;13.90;;
73107;SDS011;61559;50.476;15.588;2023-02-23T15:17:46;20.30;;;11.40;;
73107;SDS011;61559;50.476;15.588;2023-02-23T15:20:21;19.00;;;10.20;;
73107;SDS011;61559;50.476;15.588;2023-02-23T15:23:00;19.90;;;12.20;;
73107;SDS011;61559;50.476;15.588;2023-02-23T15:25:34;17.30;;;10.10;;
73107;SDS011;61559;50.476;15.588;2023-02-23T15:28:22;15.10;;;9.20;;
73107;SDS011;61559;50.476;15.588;2023-02-23T15:30:58;15.10;;;8.40;;
73107;SDS011;61559;50.476;15.588;2023-02-23T15:33:31;13.30;;;7.10;;
73107;SDS011;61559;50.476;15.588;2023-02-23T15:36:05;15.00;;;7.90;;
73107;SDS011;61559;50.476;15.588;2023-02-23T15:38:42;42.00;;;20.60;;
73107;SDS011;61559;50.476;15.588;2023-02-23T15:41:18;17.60;;;9.80;;
73107;SDS011;61559;50.476;15.588;2023-02-23T15:43:53;21.10;;;10.90;;
73107;SDS011;61559;50.476;15.588;2023-02-23T15:46:31;20.30;;;11.70;;
73107;SDS011;61559;50.476;15.588;2023-02-23T15:49:02;21.50;;;12.00;;
73107;SDS011;61559;50.476;15.588;2023-02-23T15:51:35;26.70;;;14.90;;
73107;SDS011;61559;50.476;15.588;2023-02-23T15:54:14;21.20;;;12.10;;
73107;SDS011;61559;50.476;15.588;2023-02-23T15:56:54;22.20;;;12.60;;
73107;SDS011;61559;50.476;15.588;2023-02-23T15:59:27;27.60;;;14.40;;
73107;SDS011;61559;50.476;15.588;2023-02-23T16:02:08;26.40;;;12.10;;
73107;SDS011;61559;50.476;15.588;2023-02-23T16:04:45;27.60;;;14.50;;
73107;SDS011;61559;50.476;15.588;2023-02-23T16:07:20;30.40;;;13.90;;
73107;SDS011;61559;50.476;15.588;2023-02-23T16:09:53;28.80;;;14.70;;
73107;SDS011;61559;50.476;15.588;2023-02-23T16:12:31;26.30;;;14.30;;
73107;SDS011;61559;50.476;15.588;2023-02-23T16:15:05;28.10;;;14.60;;
73107;SDS011;61559;50.476;15.588;2023-02-23T16:17:53;26.60;;;13.10;;
73107;SDS011;61559;50.476;15.588;2023-02-23T16:20:28;22.60;;;12.50;;